Sallum Plateau, Egypt
Current Conditions -  °F | °C
As of 5:00 AM on Saturday 20 Dec 2014 (Local Time) from HEMM Reporting Station
Clear Clear  
Wind Chill: 52°   Ceiling: Unl
Heat Index: 52°   Visibility: 6mi
Dew Point: 52°   Wind: 6mph
Humidity: 100%   Direction: 240°WSW
Pressure: 30.15"   Gusts: NA
Location:  31.57°N, 25.13°E
Report Text: HEMM 200300Z 24005KT CAVOK 11/11 Q1021 NOSIG
Loading
Personal Weather Stations






























Interactive Weather Map New forecast layout! Learn more

10-Day Weather Forecast

Advertisements
Track Severe Weather on mobile